Time;durP1;ratioP1;P1;durP2;ratioP2;P2;SDS_P1;SDS_P2;PMS_P1;PMS_P2;Temp;Humidity;BMP_temperature;BMP_pressure;BME280_temperature;BME280_humidity;BME280_pressure;Samples;Min_cycle;Max_cycle;Signal;HPM_P1;HPM_P2
2022/09/13 00:00:54;;;;;;;12.07;8.30;;;20.40;73.90;;;;;;5092686;28;20040;-67
2022/09/13 00:03:20;;;;;;;12.75;8.02;;;20.40;74.00;;;;;;5094109;28;20157;-67
2022/09/13 00:05:47;;;;;;;12.23;8.98;;;20.40;74.10;;;;;;5089300;28;20073;-67
2022/09/13 00:08:13;;;;;;;11.05;9.00;;;20.40;74.10;;;;;;5073368;28;20113;-67
2022/09/13 00:10:40;;;;;;;12.02;9.13;;;20.30;74.10;;;;;;5078023;28;20181;-67
2022/09/13 00:13:07;;;;;;;12.23;9.05;;;20.30;74.00;;;;;;5094925;28;20024;-67
2022/09/13 00:15:33;;;;;;;13.35;8.77;;;20.30;74.10;;;;;;5090406;28;20028;-67
2022/09/13 00:17:59;;;;;;;12.07;8.73;;;20.30;74.20;;;;;;5092903;28;20047;-67
2022/09/13 00:20:25;;;;;;;12.85;8.48;;;20.30;74.20;;;;;;5096707;28;20028;-67
2022/09/13 00:22:51;;;;;;;14.55;8.68;;;20.30;74.20;;;;;;5092755;28;20024;-67
2022/09/13 00:25:16;;;;;;;12.68;9.02;;;20.30;74.20;;;;;;5073825;28;20020;-67
2022/09/13 00:27:43;;;;;;;12.80;8.55;;;20.30;74.30;;;;;;5093840;28;20169;-67
2022/09/13 00:30:10;;;;;;;13.82;9.20;;;20.30;74.30;;;;;;5095453;28;20047;-67
2022/09/13 00:32:36;;;;;;;13.30;9.68;;;20.20;74.30;;;;;;5094915;28;20030;-67
2022/09/13 00:35:04;;;;;;;12.73;8.52;;;20.20;74.20;;;;;;5095833;28;20116;-67
2022/09/13 00:37:31;;;;;;;12.38;9.10;;;20.30;74.40;;;;;;5096557;28;20078;-67
2022/09/13 00:39:56;;;;;;;13.15;9.45;;;20.20;74.30;;;;;;5095121;28;20024;-67
2022/09/13 00:42:27;;;;;;;13.95;9.40;;;20.30;74.40;;;;;;5089721;28;20349;-67
2022/09/13 00:44:56;;;;;;;11.25;8.93;;;20.20;74.40;;;;;;5065116;28;20024;-67
2022/09/13 00:47:34;;;;;;;12.48;9.68;;;20.20;74.40;;;;;;5096576;28;20032;-67
2022/09/13 00:50:27;;;;;;;13.10;9.40;;;20.20;74.40;;;;;;5062464;28;20039;-67
2022/09/13 00:53:17;;;;;;;12.20;8.45;;;20.20;74.50;;;;;;5090398;28;20164;-67
2022/09/13 00:55:49;;;;;;;11.27;8.18;;;20.20;74.50;;;;;;5066197;28;20025;-67
2022/09/13 00:58:33;;;;;;;12.02;9.25;;;20.20;74.60;;;;;;5094216;28;20020;-67
2022/09/13 01:01:00;;;;;;;13.55;9.48;;;20.20;74.60;;;;;;5071815;28;20053;-67
2022/09/13 01:03:29;;;;;;;13.15;9.10;;;20.20;74.60;;;;;;5072838;28;20503;-67
2022/09/13 01:06:11;;;;;;;13.30;9.52;;;20.20;74.60;;;;;;5094596;28;20025;-67
2022/09/13 01:08:41;;;;;;;12.93;9.07;;;20.20;74.60;;;;;;5096363;28;20068;-67
2022/09/13 01:11:15;;;;;;;12.15;8.88;;;20.20;74.70;;;;;;5095878;28;20028;-68
2022/09/13 01:13:42;;;;;;;13.68;9.18;;;20.20;74.70;;;;;;5091861;28;20040;-67
2022/09/13 01:16:08;;;;;;;12.00;9.75;;;20.20;74.80;;;;;;5076333;28;20028;-67
2022/09/13 01:18:34;;;;;;;12.75;9.95;;;20.20;74.80;;;;;;5086421;28;20547;-67
2022/09/13 01:21:18;;;;;;;13.77;10.10;;;20.20;74.90;;;;;;5077724;28;20054;-67
2022/09/13 01:24:11;;;;;;;12.18;8.95;;;20.20;75.00;;;;;;5086725;28;20023;-67
2022/09/13 01:27:16;;;;;;;13.48;9.57;;;20.20;75.00;;;;;;5093525;28;20024;-67
2022/09/13 01:30:08;;;;;;;13.27;9.45;;;20.10;75.60;;;;;;5054581;28;20032;-68
2022/09/13 01:32:58;;;;;;;15.38;11.30;;;20.20;75.10;;;;;;5094164;28;20032;-68
2022/09/13 01:35:47;;;;;;;13.95;9.88;;;20.20;75.10;;;;;;5081989;28;20047;-67
2022/09/13 01:38:21;;;;;;;13.00;9.43;;;20.20;75.10;;;;;;5092328;28;20054;-67
2022/09/13 01:41:12;;;;;;;13.13;10.60;;;20.10;75.00;;;;;;5090618;28;20036;-67
2022/09/13 01:43:53;;;;;;;12.75;9.82;;;20.20;75.00;;;;;;5077160;28;20447;-67
2022/09/13 01:46:30;;;;;;;12.20;9.38;;;20.10;74.90;;;;;;5091914;28;20046;-67
2022/09/13 01:49:10;;;;;;;14.65;10.32;;;20.10;74.90;;;;;;5089668;28;20028;-67
2022/09/13 01:51:43;;;;;;;11.90;9.15;;;20.10;74.90;;;;;;5086522;28;20035;-67
2022/09/13 01:54:16;;;;;;;12.65;10.00;;;20.10;74.80;;;;;;5084142;28;20107;-67
2022/09/13 01:56:56;;;;;;;13.95;10.57;;;20.20;74.90;;;;;;5088681;28;20020;-67
2022/09/13 01:59:29;;;;;;;14.13;9.77;;;20.20;74.80;;;;;;5093938;28;20089;-67
2022/09/13 02:02:08;;;;;;;12.82;10.43;;;20.10;74.70;;;;;;5089931;28;20032;-67
2022/09/13 02:04:41;;;;;;;13.65;9.60;;;20.20;74.70;;;;;;5073686;28;20032;-67
2022/09/13 02:07:13;;;;;;;13.10;10.05;;;20.20;74.80;;;;;;5092859;28;20024;-67
2022/09/13 02:09:47;;;;;;;13.90;9.95;;;20.20;74.70;;;;;;5075001;28;20345;-67
2022/09/13 02:12:23;;;;;;;13.43;10.18;;;20.10;74.60;;;;;;5076013;28;20031;-67
2022/09/13 02:15:02;;;;;;;12.15;9.65;;;20.10;74.50;;;;;;5093297;28;20024;-67
2022/09/13 02:17:35;;;;;;;13.93;9.98;;;20.10;74.50;;;;;;5076341;28;20051;-67
2022/09/13 02:20:11;;;;;;;15.38;10.93;;;20.10;74.50;;;;;;5074219;28;20028;-67
2022/09/13 02:22:45;;;;;;;14.20;10.48;;;20.10;74.50;;;;;;5089119;28;20095;-67
2022/09/13 02:25:18;;;;;;;13.35;10.07;;;20.10;74.50;;;;;;5072668;28;20031;-67
2022/09/13 02:27:46;;;;;;;13.02;10.10;;;20.10;74.30;;;;;;5088093;28;20024;-68
2022/09/13 02:30:14;;;;;;;12.85;9.10;;;20.10;74.30;;;;;;5090511;28;20066;-67
2022/09/13 02:32:43;;;;;;;12.52;10.30;;;20.10;74.30;;;;;;5084245;28;20445;-68
2022/09/13 02:35:32;;;;;;;13.68;9.95;;;20.10;74.20;;;;;;5072303;28;20157;-68
2022/09/13 02:38:07;;;;;;;12.85;10.50;;;20.20;74.30;;;;;;5080769;28;20044;-68
2022/09/13 02:40:45;;;;;;;13.73;10.32;;;20.10;74.60;;;;;;5084120;28;20036;-68
2022/09/13 02:43:21;;;;;;;14.85;11.20;;;20.10;74.30;;;;;;5090687;28;20112;-68
2022/09/13 02:45:55;;;;;;;14.25;9.75;;;20.10;74.40;;;;;;5065539;28;20097;-68
2022/09/13 02:48:30;;;;;;;14.05;10.02;;;20.20;74.50;;;;;;5073870;28;20476;-67
2022/09/13 02:51:16;;;;;;;14.13;11.00;;;20.10;74.50;;;;;;5091661;28;20154;-67
2022/09/13 02:53:54;;;;;;;13.88;9.90;;;20.20;74.50;;;;;;5084096;28;20024;-67
2022/09/13 02:56:26;;;;;;;13.30;9.73;;;20.20;74.60;;;;;;5090298;28;20024;-67
2022/09/13 02:59:00;;;;;;;13.40;10.20;;;20.10;74.60;;;;;;5092970;28;20027;-67
2022/09/13 03:01:26;;;;;;;13.77;10.38;;;20.20;74.60;;;;;;5076204;28;20406;-67
2022/09/13 03:03:55;;;;;;;21.65;11.40;;;20.10;74.50;;;;;;5070527;28;20071;-67
2022/09/13 03:06:26;;;;;;;14.00;10.25;;;20.10;74.40;;;;;;5087869;28;20035;-67
2022/09/13 03:08:53;;;;;;;;;;;20.20;74.20;;;;;;5093611;28;20032;-67
2022/09/13 03:11:44;;;;;;;12.88;9.85;;;20.10;74.10;;;;;;5091977;28;19907;-67
2022/09/13 03:14:48;;;;;;;13.85;10.52;;;20.10;74.10;;;;;;5084065;28;20472;-67
2022/09/13 03:17:28;;;;;;;14.20;10.20;;;20.10;74.10;;;;;;5081224;28;20405;-67
2022/09/13 03:20:08;;;;;;;13.95;9.45;;;20.10;74.10;;;;;;5088214;28;20035;-67
2022/09/13 03:22:47;;;;;;;12.95;9.32;;;20.10;74.00;;;;;;5075312;28;20027;-67
2022/09/13 03:25:29;;;;;;;13.40;9.00;;;20.00;74.00;;;;;;5091423;28;20040;-67
2022/09/13 03:28:09;;;;;;;12.38;8.65;;;20.00;74.00;;;;;;5093951;28;20052;-67
2022/09/13 03:30:45;;;;;;;13.27;8.73;;;20.00;74.00;;;;;;5094151;28;20181;-67
2022/09/13 03:33:23;;;;;;;13.13;9.27;;;20.00;74.10;;;;;;5078694;28;20036;-67
2022/09/13 03:35:59;;;;;;;11.63;9.02;;;20.00;74.10;;;;;;5088193;28;20048;-67
2022/09/13 03:38:36;;;;;;;12.50;9.65;;;20.00;74.10;;;;;;5065658;28;20020;-67
2022/09/13 03:41:11;;;;;;;12.98;9.07;;;20.00;74.10;;;;;;5095912;28;20039;-68
2022/09/13 03:43:45;;;;;;;11.93;8.88;;;20.00;74.00;;;;;;5073032;28;20107;-67
2022/09/13 03:46:23;;;;;;;12.50;9.35;;;20.00;74.00;;;;;;5084139;28;20035;-67
2022/09/13 03:48:50;;;;;;;11.55;8.90;;;20.00;74.00;;;;;;5078282;28;20432;-67
2022/09/13 03:51:16;;;;;;;12.60;8.77;;;20.00;74.00;;;;;;5096126;28;20057;-67
2022/09/13 03:53:47;;;;;;;14.43;9.05;;;20.00;74.00;;;;;;5077989;28;20111;-67
2022/09/13 03:56:17;;;;;;;11.10;8.15;;;20.00;74.10;;;;;;5096214;28;20036;-67
2022/09/13 03:58:43;;;;;;;11.52;8.10;;;20.00;74.10;;;;;;5089189;28;20107;-67
2022/09/13 04:01:09;;;;;;;12.60;8.95;;;20.00;74.10;;;;;;5068616;28;20043;-68
2022/09/13 04:03:36;;;;;;;12.93;9.48;;;20.00;74.10;;;;;;5064201;28;20024;-67
2022/09/13 04:06:02;;;;;;;12.63;9.77;;;19.90;74.00;;;;;;5088331;28;20020;-67
2022/09/13 04:08:28;;;;;;;13.95;9.40;;;20.00;74.10;;;;;;5082912;28;20075;-67
2022/09/13 04:10:53;;;;;;;12.50;9.35;;;19.90;74.10;;;;;;5091859;28;20047;-67
2022/09/13 04:13:21;;;;;;;12.52;9.13;;;19.90;74.10;;;;;;5092976;28;20039;-67
2022/09/13 04:15:47;;;;;;;13.18;9.88;;;19.90;74.20;;;;;;5094980;28;20028;-67
2022/09/13 04:18:13;;;;;;;13.98;9.25;;;20.00;74.30;;;;;;5069714;28;20044;-67
2022/09/13 04:20:38;;;;;;;12.82;9.10;;;19.90;74.40;;;;;;5093122;28;20105;-67
2022/09/13 04:23:04;;;;;;;13.75;10.07;;;19.90;74.40;;;;;;5068177;28;20469;-67
2022/09/13 04:25:30;;;;;;;12.93;9.70;;;19.90;75.10;;;;;;5078802;28;20031;-67
2022/09/13 04:27:58;;;;;;;16.30;9.55;;;19.90;74.40;;;;;;5070542;28;20075;-67
2022/09/13 04:30:24;;;;;;;12.82;9.32;;;19.90;74.50;;;;;;5090078;28;20464;-67
2022/09/13 04:32:50;;;;;;;14.82;10.20;;;19.90;74.40;;;;;;5087709;28;20038;-67
2022/09/13 04:35:18;;;;;;;12.88;9.52;;;19.90;74.50;;;;;;5087693;28;20107;-67
2022/09/13 04:37:45;;;;;;;13.15;9.75;;;19.90;74.60;;;;;;5087310;28;20036;-67
2022/09/13 04:40:11;;;;;;;15.75;9.95;;;19.90;74.70;;;;;;5066705;28;20079;-67
2022/09/13 04:42:37;;;;;;;12.82;9.75;;;19.90;74.80;;;;;;5094467;28;20525;-67
2022/09/13 04:45:03;;;;;;;16.50;9.95;;;19.90;74.80;;;;;;5071432;28;20100;-67
2022/09/13 04:47:29;;;;;;;15.25;9.73;;;19.90;74.80;;;;;;5092918;28;20073;-67
2022/09/13 04:49:55;;;;;;;13.82;10.68;;;19.90;74.80;;;;;;5089528;28;20501;-67
2022/09/13 04:52:21;;;;;;;15.02;10.48;;;19.90;74.80;;;;;;5095679;28;20024;-67
2022/09/13 04:54:46;;;;;;;15.32;11.07;;;19.90;74.90;;;;;;5095449;28;20020;-67
2022/09/13 04:57:13;;;;;;;15.23;10.10;;;19.90;74.90;;;;;;5070215;28;20182;-67
2022/09/13 04:59:39;;;;;;;14.93;10.38;;;19.80;74.90;;;;;;5055685;28;20043;-67
2022/09/13 05:02:05;;;;;;;16.35;10.85;;;19.90;75.00;;;;;;5068037;28;20032;-68
2022/09/13 05:04:30;;;;;;;15.05;11.20;;;19.90;75.10;;;;;;5085009;28;20036;-67
2022/09/13 05:06:57;;;;;;;16.23;10.82;;;19.90;75.10;;;;;;5084565;28;20060;-67
2022/09/13 05:09:23;;;;;;;15.13;11.32;;;19.90;75.10;;;;;;5086013;28;20448;-67
2022/09/13 05:11:49;;;;;;;15.57;11.07;;;19.90;75.20;;;;;;5084435;28;20052;-67
2022/09/13 05:14:14;;;;;;;15.75;11.60;;;19.90;75.30;;;;;;5082725;28;20039;-67
2022/09/13 05:16:40;;;;;;;15.77;12.07;;;19.90;75.40;;;;;;5087068;28;20043;-67
2022/09/13 05:19:06;;;;;;;15.38;11.73;;;19.90;75.50;;;;;;5084258;28;20442;-67
2022/09/13 05:21:32;;;;;;;16.80;12.45;;;19.80;75.40;;;;;;5062558;28;20354;-67
2022/09/13 05:23:58;;;;;;;13.98;11.30;;;19.90;75.50;;;;;;5071790;28;20028;-67
2022/09/13 05:26:26;;;;;;;17.88;12.15;;;19.90;75.50;;;;;;5070553;28;20891;-67
2022/09/13 05:28:52;;;;;;;14.98;11.95;;;19.90;75.60;;;;;;5067636;28;20399;-67
2022/09/13 05:31:33;;;;;;;15.75;11.93;;;19.90;75.60;;;;;;5084899;28;20016;-67
2022/09/13 05:34:05;;;;;;;16.27;12.82;;;19.90;75.70;;;;;;5086371;28;20032;-67
2022/09/13 05:36:32;;;;;;;16.73;13.73;;;19.90;75.60;;;;;;5068232;28;20620;-67
2022/09/13 05:38:58;;;;;;;18.63;12.88;;;19.90;75.60;;;;;;5086822;28;20090;-67
2022/09/13 05:41:23;;;;;;;16.33;11.65;;;19.90;75.70;;;;;;5084207;28;20031;-67
2022/09/13 05:43:49;;;;;;;15.43;12.30;;;19.90;75.70;;;;;;5084867;28;20024;-67
2022/09/13 05:46:18;;;;;;;15.63;12.55;;;19.90;75.80;;;;;;5083035;28;20027;-67
2022/09/13 05:48:44;;;;;;;16.08;12.93;;;19.90;75.90;;;;;;5084568;28;20024;-67
2022/09/13 05:51:14;;;;;;;15.07;12.05;;;19.90;75.90;;;;;;5070718;28;20115;-67
2022/09/13 05:53:43;;;;;;;16.20;12.73;;;19.90;76.00;;;;;;5084438;28;20029;-67
2022/09/13 05:56:20;;;;;;;17.33;13.07;;;19.90;76.00;;;;;;5086623;28;20429;-67
2022/09/13 05:58:47;;;;;;;18.48;13.25;;;19.90;76.00;;;;;;5085214;28;20130;-67
2022/09/13 06:01:15;;;;;;;17.45;13.77;;;20.00;76.10;;;;;;5069494;28;20024;-68
2022/09/13 06:03:41;;;;;;;15.45;12.90;;;20.00;76.10;;;;;;5067467;28;20026;-66
2022/09/13 06:06:07;;;;;;;17.45;13.32;;;20.00;76.00;;;;;;5086134;28;20066;-66
2022/09/13 06:08:34;;;;;;;16.50;13.10;;;20.10;76.00;;;;;;5084886;28;20028;-67
2022/09/13 06:11:03;;;;;;;17.15;12.88;;;20.10;75.80;;;;;;5065850;28;20035;-66
2022/09/13 06:13:29;;;;;;;17.25;12.60;;;20.10;75.70;;;;;;5086312;28;20111;-67
2022/09/13 06:15:57;;;;;;;19.67;14.23;;;20.10;75.50;;;;;;5083010;28;20040;-67
2022/09/13 06:18:26;;;;;;;18.15;14.05;;;20.20;75.50;;;;;;5069997;28;20066;-67
2022/09/13 06:20:58;;;;;;;16.88;12.85;;;20.10;75.40;;;;;;5080578;28;20024;-67
2022/09/13 06:23:24;;;;;;;16.25;12.95;;;20.20;75.50;;;;;;5084818;28;20024;-67
2022/09/13 06:25:49;;;;;;;19.63;12.55;;;20.20;75.30;;;;;;5083190;28;20471;-67
2022/09/13 06:28:15;;;;;;;17.65;13.57;;;20.20;75.20;;;;;;5083527;28;20429;-67
2022/09/13 06:30:40;;;;;;;17.48;13.68;;;20.30;75.30;;;;;;5069170;28;20034;-67
2022/09/13 06:33:06;;;;;;;17.58;14.02;;;20.30;75.20;;;;;;5067835;28;20036;-68
2022/09/13 06:35:32;;;;;;;17.70;14.63;;;20.30;75.20;;;;;;5069315;28;21058;-68
2022/09/13 06:37:57;;;;;;;17.60;13.98;;;20.30;75.20;;;;;;5081082;28;20043;-67
2022/09/13 06:40:24;;;;;;;17.25;13.27;;;20.40;75.30;;;;;;5083680;28;20070;-67
2022/09/13 06:42:49;;;;;;;18.17;14.18;;;20.40;75.30;;;;;;5065664;28;20402;-67
2022/09/13 06:45:15;;;;;;;17.92;13.65;;;20.40;75.40;;;;;;5066668;28;21293;-67
2022/09/13 06:47:41;;;;;;;22.63;14.25;;;20.50;75.40;;;;;;5083040;28;20025;-67
2022/09/13 06:50:08;;;;;;;17.05;13.77;;;20.50;75.30;;;;;;5083400;28;20487;-67
2022/09/13 06:52:34;;;;;;;16.20;13.50;;;20.60;75.20;;;;;;5084013;28;20089;-68
2022/09/13 06:55:00;;;;;;;19.23;14.70;;;20.60;75.20;;;;;;5083221;28;20024;-67
2022/09/13 06:57:28;;;;;;;20.35;14.82;;;20.70;75.10;;;;;;5060395;28;20033;-68
2022/09/13 06:59:54;;;;;;;21.48;16.17;;;20.70;74.90;;;;;;5084317;28;20472;-67
2022/09/13 07:02:19;;;;;;;18.67;14.25;;;20.80;74.70;;;;;;5081325;28;20029;-67
2022/09/13 07:04:45;;;;;;;20.77;14.23;;;20.80;74.60;;;;;;5085350;28;20039;-67
2022/09/13 07:07:11;;;;;;;18.42;14.60;;;20.80;74.50;;;;;;5086464;28;20021;-67
2022/09/13 07:09:36;;;;;;;19.52;14.43;;;20.90;74.50;;;;;;5086546;28;20081;-67
2022/09/13 07:12:05;;;;;;;21.13;15.77;;;20.90;74.50;;;;;;5084311;28;20464;-67
2022/09/13 07:14:30;;;;;;;19.92;14.82;;;20.90;74.40;;;;;;5089222;28;20035;-67
2022/09/13 07:16:56;;;;;;;20.90;15.82;;;21.00;74.30;;;;;;5072795;28;20036;-67
2022/09/13 07:19:25;;;;;;;19.13;14.60;;;21.00;74.20;;;;;;5061961;28;20077;-67
2022/09/13 07:21:52;;;;;;;20.15;15.48;;;21.10;74.20;;;;;;5087229;28;20032;-68
2022/09/13 07:24:19;;;;;;;21.15;16.65;;;21.00;74.00;;;;;;5061958;28;20529;-67
2022/09/13 07:26:45;;;;;;;21.17;16.55;;;21.10;73.90;;;;;;5086923;28;20040;-68
2022/09/13 07:29:15;;;;;;;22.95;16.33;;;21.20;73.70;;;;;;5088561;28;20469;-68
2022/09/13 07:31:43;;;;;;;21.35;15.13;;;21.30;73.60;;;;;;5066026;28;20044;-68
2022/09/13 07:34:14;;;;;;;20.92;16.23;;;21.30;73.30;;;;;;5085778;28;20461;-68
2022/09/13 07:36:40;;;;;;;24.48;16.45;;;21.40;73.10;;;;;;5073217;28;20334;-67
2022/09/13 07:39:06;;;;;;;21.92;16.38;;;21.50;73.10;;;;;;5071425;28;20036;-67
2022/09/13 07:41:33;;;;;;;22.20;16.70;;;21.50;73.00;;;;;;5088380;28;20033;-68
2022/09/13 07:44:00;;;;;;;21.25;15.57;;;21.60;72.90;;;;;;5069469;28;20039;-67
2022/09/13 07:46:32;;;;;;;20.75;15.23;;;21.70;72.70;;;;;;5083154;28;20025;-67
2022/09/13 07:48:59;;;;;;;19.73;14.27;;;21.90;72.50;;;;;;5087514;28;20016;-67
2022/09/13 07:51:27;;;;;;;18.88;12.93;;;22.10;72.20;;;;;;5071446;28;20020;-67
2022/09/13 07:53:55;;;;;;;17.85;11.93;;;22.20;71.80;;;;;;5067007;28;20716;-67
2022/09/13 07:56:23;;;;;;;17.08;11.63;;;22.40;71.50;;;;;;5085828;28;20036;-67
2022/09/13 07:58:51;;;;;;;16.25;11.55;;;22.50;71.30;;;;;;5071519;28;20035;-67
2022/09/13 08:01:22;;;;;;;14.27;9.98;;;22.70;71.10;;;;;;5087712;28;20036;-67
2022/09/13 08:04:02;;;;;;;28.70;15.50;;;22.90;70.90;;;;;;5085192;28;20432;-67
2022/09/13 08:06:29;;;;;;;19.58;11.85;;;23.10;70.50;;;;;;5072255;28;20334;-67
2022/09/13 08:08:56;;;;;;;15.52;9.52;;;23.20;70.20;;;;;;5069751;28;20025;-66
2022/09/13 08:11:28;;;;;;;13.57;8.90;;;23.30;69.90;;;;;;5084154;28;20031;-66
2022/09/13 08:13:54;;;;;;;14.55;7.72;;;23.40;69.70;;;;;;5087707;28;20056;-66
2022/09/13 08:16:22;;;;;;;12.57;6.18;;;23.50;69.70;;;;;;5086133;28;20082;-66
2022/09/13 08:18:51;;;;;;;13.60;5.50;;;23.70;69.40;;;;;;5068307;28;20120;-66
2022/09/13 08:21:17;;;;;;;8.50;4.57;;;23.70;69.40;;;;;;5087027;28;20074;-66
2022/09/13 08:23:43;;;;;;;7.70;4.40;;;23.70;69.60;;;;;;5061435;28;20352;-66
2022/09/13 08:26:09;;;;;;;7.93;4.60;;;23.60;69.70;;;;;;5085275;28;20051;-67
2022/09/13 08:28:37;;;;;;;7.50;4.32;;;23.50;70.00;;;;;;5069528;28;20092;-67
2022/09/13 08:31:11;;;;;;;9.68;5.40;;;23.40;70.20;;;;;;5084777;28;20109;-67
2022/09/13 08:33:37;;;;;;;12.27;6.43;;;23.30;70.40;;;;;;5085545;28;20498;-67
2022/09/13 08:36:03;;;;;;;14.90;7.70;;;23.30;70.60;;;;;;5083285;28;20036;-66
2022/09/13 08:38:30;;;;;;;12.80;8.35;;;23.20;70.70;;;;;;5063299;28;20040;-66
2022/09/13 08:41:04;;;;;;;12.48;7.82;;;23.20;70.90;;;;;;5085805;28;20115;-66
2022/09/13 08:44:00;;;;;;;12.30;7.88;;;23.30;70.80;;;;;;5068990;28;20378;-67
2022/09/13 08:46:32;;;;;;;17.25;9.32;;;23.40;70.60;;;;;;5069298;28;20020;-67
2022/09/13 08:49:05;;;;;;;15.27;9.85;;;23.50;70.50;;;;;;5071406;28;20027;-68
2022/09/13 08:51:43;;;;;;;15.00;9.70;;;23.60;70.40;;;;;;5078739;28;20036;-67
2022/09/13 08:54:15;;;;;;;14.77;10.00;;;23.60;70.30;;;;;;5077550;28;20035;-68
2022/09/13 08:57:22;;;;;;;16.05;10.88;;;23.70;70.30;;;;;;5095767;28;20305;-67
2022/09/13 09:00:06;;;;;;;15.90;10.80;;;23.60;70.20;;;;;;5081253;28;20063;-67
2022/09/13 09:02:51;;;;;;;16.08;10.68;;;23.60;70.30;;;;;;5095797;28;20086;-67
2022/09/13 09:05:20;;;;;;;13.38;9.27;;;23.70;69.90;;;;;;5096147;28;20036;-67
2022/09/13 09:07:53;;;;;;;14.25;9.70;;;23.80;69.70;;;;;;5096149;28;20032;-67
2022/09/13 09:10:36;;;;;;;13.75;8.82;;;23.90;69.40;;;;;;5078367;28;20024;-67
2022/09/13 09:13:04;;;;;;;12.60;10.05;;;24.00;69.00;;;;;;5077525;28;20058;-67
2022/09/13 09:15:39;;;;;;;13.77;10.10;;;24.00;69.00;;;;;;5077324;28;20020;-67
2022/09/13 09:18:24;;;;;;;12.65;10.60;;;23.90;69.20;;;;;;5095947;28;20040;-68
2022/09/13 09:20:58;;;;;;;14.48;10.48;;;23.90;69.40;;;;;;5078360;28;20042;-68
2022/09/13 09:23:40;;;;;;;14.20;8.98;;;23.70;69.40;;;;;;5095632;28;20046;-67
2022/09/13 09:26:28;;;;;;;13.30;9.00;;;23.60;69.80;;;;;;5077894;28;20060;-67
2022/09/13 09:29:19;;;;;;;12.05;8.27;;;23.40;70.20;;;;;;5076355;28;20029;-67
2022/09/13 09:31:50;;;;;;;11.80;8.27;;;23.30;70.60;;;;;;5093508;28;20066;-67
2022/09/13 09:34:47;;;;;;;11.93;8.00;;;23.20;70.80;;;;;;5095659;28;20027;-67
2022/09/13 09:37:26;;;;;;;11.75;7.22;;;23.10;70.80;;;;;;5078013;28;20031;-68
2022/09/13 09:39:57;;;;;;;11.52;6.97;;;23.10;71.00;;;;;;5095732;28;20084;-67
2022/09/13 09:42:27;;;;;;;10.67;7.10;;;23.00;71.10;;;;;;5095840;28;20053;-67
2022/09/13 09:45:01;;;;;;;11.73;7.20;;;23.00;71.50;;;;;;5075649;28;20024;-67
2022/09/13 09:47:40;;;;;;;11.20;6.75;;;22.90;71.40;;;;;;5095482;28;20350;-67
2022/09/13 09:50:17;;;;;;;10.00;6.18;;;22.90;71.50;;;;;;5077749;28;20452;-67
2022/09/13 09:52:58;;;;;;;10.07;6.47;;;22.80;71.50;;;;;;5077563;28;20024;-68
2022/09/13 09:55:45;;;;;;;11.02;6.60;;;22.80;71.70;;;;;;5092252;28;20330;-67
2022/09/13 09:58:15;;;;;;;9.93;6.05;;;22.80;71.90;;;;;;5087670;28;20059;-67
2022/09/13 10:00:55;;;;;;;10.52;6.57;;;22.80;71.90;;;;;;5089943;28;20036;-67
2022/09/13 10:03:30;;;;;;;9.85;5.50;;;22.80;71.80;;;;;;5083027;28;20077;-67
2022/09/13 10:06:07;;;;;;;7.60;4.65;;;22.80;71.70;;;;;;5089980;28;20070;-67
2022/09/13 10:08:36;;;;;;;9.05;5.22;;;22.90;71.50;;;;;;5081627;28;20035;-67
2022/09/13 10:11:02;;;;;;;8.20;4.38;;;23.00;71.30;;;;;;5093556;28;20349;-67
2022/09/13 10:13:29;;;;;;;7.07;3.85;;;23.20;71.10;;;;;;5087676;28;20445;-67
2022/09/13 10:16:02;;;;;;;8.98;4.43;;;23.40;70.60;;;;;;5068755;28;20058;-67
2022/09/13 10:18:30;;;;;;;9.15;4.35;;;23.50;70.10;;;;;;5091738;28;20120;-67
2022/09/13 10:21:23;;;;;;;7.15;4.00;;;23.60;69.90;;;;;;5077873;28;20028;-67
2022/09/13 10:23:50;;;;;;;7.55;4.30;;;23.60;69.70;;;;;;5090838;28;20016;-67
2022/09/13 10:26:24;;;;;;;7.38;4.25;;;23.60;69.80;;;;;;5094647;28;20016;-68
2022/09/13 10:29:06;;;;;;;7.93;4.53;;;23.50;69.80;;;;;;5087827;28;20028;-67
2022/09/13 10:31:37;;;;;;;8.05;5.25;;;23.50;69.90;;;;;;5074810;28;20453;-67
2022/09/13 10:34:10;;;;;;;8.43;5.03;;;23.50;69.70;;;;;;5073908;28;20475;-67
2022/09/13 10:36:36;;;;;;;8.65;4.55;;;23.50;69.60;;;;;;5094526;28;20047;-67
2022/09/13 10:39:16;;;;;;;8.55;4.50;;;23.50;69.60;;;;;;5071829;28;20035;-67
2022/09/13 10:41:50;;;;;;;8.68;4.50;;;23.50;69.60;;;;;;5094387;28;20115;-67
2022/09/13 10:44:22;;;;;;;6.85;3.72;;;23.40;69.70;;;;;;5085499;28;20032;-67
2022/09/13 10:46:49;;;;;;;7.28;3.65;;;23.50;69.90;;;;;;5066268;28;20020;-67
2022/09/13 10:49:34;;;;;;;8.23;4.35;;;23.50;69.70;;;;;;5088436;28;20169;-67
2022/09/13 10:51:59;;;;;;;7.30;3.90;;;23.60;69.30;;;;;;5094115;28;20096;-67
2022/09/13 10:54:25;;;;;;;8.15;3.80;;;23.70;69.00;;;;;;5089388;28;20114;-67
2022/09/13 10:56:51;;;;;;;6.97;3.47;;;23.80;68.80;;;;;;5074108;28;20101;-67
2022/09/13 10:59:28;;;;;;;8.88;3.78;;;24.00;68.60;;;;;;5092237;28;20024;-67
2022/09/13 11:02:38;;;;;;;5.75;2.90;;;24.00;68.40;;;;;;5093652;28;20055;-67
2022/09/13 11:05:24;;;;;;;5.22;2.80;;;24.10;68.10;;;;;;5085225;28;20123;-68
2022/09/13 11:08:20;;;;;;;6.38;2.85;;;24.20;67.70;;;;;;5068675;28;20033;-67
2022/09/13 11:11:10;;;;;;;5.35;2.75;;;24.30;67.40;;;;;;5086926;28;20097;-67
2022/09/13 11:13:57;;;;;;;6.35;2.80;;;24.40;67.00;;;;;;5086616;28;20024;-67
2022/09/13 11:16:37;;;;;;;7.15;2.53;;;24.50;66.60;;;;;;5076140;28;20043;-67
2022/09/13 11:19:36;;;;;;;4.93;2.45;;;24.70;65.90;;;;;;5078708;28;20056;-67
2022/09/13 11:22:26;;;;;;;3.95;1.90;;;24.70;65.50;;;;;;5081506;28;20138;-68
2022/09/13 11:25:08;;;;;;;3.47;1.83;;;24.80;65.40;;;;;;5093695;28;20060;-67
2022/09/13 11:28:05;;;;;;;4.00;1.80;;;24.70;65.30;;;;;;5075945;28;20141;-67
2022/09/13 11:31:01;;;;;;;4.80;1.65;;;24.70;65.10;;;;;;5092363;28;20126;-68
2022/09/13 11:33:33;;;;;;;4.53;2.00;;;24.70;65.10;;;;;;5074216;28;20480;-68
2022/09/13 11:36:35;;;;;;;4.53;1.95;;;24.70;65.00;;;;;;5093741;28;20161;-68
2022/09/13 11:39:42;;;;;;;3.90;1.70;;;24.80;64.80;;;;;;5083072;28;20028;-69
2022/09/13 11:42:13;;;;;;;4.13;1.80;;;24.80;64.80;;;;;;5011900;28;20124;-68
2022/09/13 11:45:06;;;;;;;3.65;1.80;;;24.80;64.50;;;;;;4995154;28;20124;-67
2022/09/13 11:47:35;;;;;;;4.50;1.52;;;24.80;64.90;;;;;;5011942;28;20030;-67
2022/09/13 11:50:13;;;;;;;2.13;1.40;;;24.80;64.20;;;;;;4995339;28;20451;-68
2022/09/13 11:53:23;;;;;;;3.25;1.38;;;24.90;63.90;;;;;;5015691;28;20046;-68
2022/09/13 11:56:01;;;;;;;3.85;1.38;;;24.80;63.80;;;;;;4995724;28;20172;-67
2022/09/13 11:58:44;;;;;;;2.90;1.45;;;24.70;64.10;;;;;;5014395;28;20042;-67
2022/09/13 12:01:15;;;;;;;3.42;1.40;;;24.60;64.00;;;;;;5014434;28;20362;-68
2022/09/13 12:03:59;;;;;;;;;;;24.60;64.00;;;;;;5013853;28;20033;-68
2022/09/13 12:06:42;;;;;;;2.50;1.30;;;24.50;64.20;;;;;;5014588;28;20115;-67
2022/09/13 12:09:22;;;;;;;3.13;1.60;;;24.50;64.00;;;;;;4998927;28;20034;-67
2022/09/13 12:11:54;;;;;;;4.90;1.70;;;24.50;63.70;;;;;;4998980;28;20042;-68
2022/09/13 12:14:24;;;;;;;3.90;1.50;;;24.60;63.70;;;;;;5009289;28;20109;-68
2022/09/13 12:16:55;;;;;;;3.28;1.52;;;24.60;63.60;;;;;;5026052;28;20030;-68
2022/09/13 12:19:27;;;;;;;;;;;24.60;63.70;;;;;;5069144;28;20354;-67
2022/09/13 12:21:56;;;;;;;4.70;1.45;;;24.50;63.80;;;;;;5083829;28;19992;-67
2022/09/13 12:24:45;;;;;;;4.10;1.55;;;24.50;64.00;;;;;;5075295;28;20032;-67
2022/09/13 12:27:27;;;;;;;3.97;1.48;;;24.50;63.60;;;;;;5073070;28;20360;-69
2022/09/13 12:30:04;;;;;;;2.83;1.20;;;24.50;63.50;;;;;;5096739;28;20024;-69
2022/09/13 12:32:30;;;;;;;5.28;1.63;;;24.50;63.30;;;;;;5088659;28;20024;-69
2022/09/13 12:35:12;;;;;;;4.55;1.73;;;24.50;63.30;;;;;;5093878;28;20119;-69
2022/09/13 12:37:52;;;;;;;6.10;1.63;;;24.60;63.20;;;;;;5095619;28;20026;-69
2022/09/13 12:40:33;;;;;;;4.30;1.73;;;24.50;63.10;;;;;;5067677;28;20036;-69
2022/09/13 12:43:21;;;;;;;5.05;1.52;;;24.50;63.20;;;;;;5075373;28;20055;-69
2022/09/13 12:46:02;;;;;;;6.18;2.20;;;24.50;63.40;;;;;;5062783;28;20024;-69
2022/09/13 12:48:59;;;;;;;4.90;1.70;;;24.50;63.50;;;;;;5078467;28;20028;-69
2022/09/13 12:51:47;;;;;;;4.35;1.60;;;24.50;63.30;;;;;;5069925;28;20074;-69
2022/09/13 12:54:24;;;;;;;4.22;1.52;;;24.60;63.10;;;;;;5081903;28;20043;-69
2022/09/13 12:56:58;;;;;;;2.83;1.30;;;24.70;62.90;;;;;;5070081;28;20046;-69
2022/09/13 12:59:34;;;;;;;4.35;1.45;;;24.70;62.70;;;;;;5089619;28;20127;-69
2022/09/13 13:02:03;;;;;;;1.88;1.02;;;24.80;62.50;;;;;;5068519;28;20364;-69
2022/09/13 13:04:34;;;;;;;4.18;1.98;;;24.90;62.40;;;;;;5074661;28;20036;-68
2022/09/13 13:07:07;;;;;;;6.43;2.28;;;24.80;62.10;;;;;;5087142;28;20039;-68